createdAt,value
2022-12-26T00:00:38.775Z,1004.65
2022-12-26T00:01:38.682Z,1004.62
2022-12-26T00:02:38.777Z,1004.62
2022-12-26T00:03:38.791Z,1004.62
2022-12-26T00:04:50.994Z,1004.61
2022-12-26T00:05:38.676Z,1004.65
2022-12-26T00:06:38.686Z,1004.62
2022-12-26T00:07:38.690Z,1004.64
2022-12-26T00:08:38.670Z,1004.64
2022-12-26T00:09:38.699Z,1004.71
2022-12-26T00:10:38.663Z,1004.68
2022-12-26T00:11:38.657Z,1004.70
2022-12-26T00:12:38.680Z,1004.61
2022-12-26T00:13:41.448Z,1004.62
2022-12-26T00:14:38.670Z,1004.60
2022-12-26T00:15:38.651Z,1004.59
2022-12-26T00:16:38.701Z,1004.62
2022-12-26T00:17:38.661Z,1004.60
2022-12-26T00:18:38.665Z,1004.55
2022-12-26T00:19:38.648Z,1004.47
2022-12-26T00:20:38.664Z,1004.43
2022-12-26T00:21:38.655Z,1004.41
2022-12-26T00:22:38.637Z,1004.39
2022-12-26T00:23:38.655Z,1004.43
2022-12-26T00:24:38.634Z,1004.41
2022-12-26T00:25:38.659Z,1004.40
2022-12-26T00:26:38.647Z,1004.43
2022-12-26T00:27:38.627Z,1004.48
2022-12-26T00:28:38.644Z,1004.40
2022-12-26T00:29:38.651Z,1004.38
2022-12-26T00:30:38.647Z,1004.46
2022-12-26T00:31:38.661Z,1004.47
2022-12-26T00:32:38.619Z,1004.51
2022-12-26T00:33:38.622Z,1004.51
2022-12-26T00:34:38.628Z,1004.54
2022-12-26T00:35:38.626Z,1004.55
2022-12-26T00:36:38.641Z,1004.50
2022-12-26T00:37:38.620Z,1004.50
2022-12-26T00:38:38.628Z,1004.46
2022-12-26T00:39:38.642Z,1004.43
2022-12-26T00:40:38.601Z,1004.47
2022-12-26T00:41:38.623Z,1004.36
2022-12-26T00:42:38.604Z,1004.35
2022-12-26T00:43:38.623Z,1004.35
2022-12-26T00:44:38.622Z,1004.35
2022-12-26T00:45:38.607Z,1004.41
2022-12-26T00:46:38.631Z,1004.28
2022-12-26T00:47:38.606Z,1004.31
2022-12-26T00:48:38.596Z,1004.36
2022-12-26T00:50:12.451Z,1004.36
2022-12-26T00:50:38.591Z,1004.39
2022-12-26T00:51:38.598Z,1004.37
2022-12-26T00:52:38.596Z,1004.29
2022-12-26T00:53:38.588Z,1004.22
2022-12-26T00:54:38.583Z,1004.14
2022-12-26T00:55:38.593Z,1004.23
2022-12-26T00:56:38.584Z,1004.24
2022-12-26T00:57:38.577Z,1004.18
2022-12-26T00:58:38.594Z,1004.19
2022-12-26T00:59:38.566Z,1004.13
2022-12-26T01:00:38.596Z,1004.08
2022-12-26T01:01:38.796Z,1004.05
2022-12-26T01:02:38.767Z,1004.05
2022-12-26T01:03:38.576Z,1004.07
2022-12-26T01:04:38.566Z,1004.08
2022-12-26T01:05:38.555Z,1004.15
2022-12-26T01:06:38.554Z,1004.09
2022-12-26T01:08:19.569Z,1004.11
2022-12-26T01:08:38.577Z,1004.06
2022-12-26T01:09:38.550Z,1004.06
2022-12-26T01:10:38.546Z,1004.00
2022-12-26T01:11:38.553Z,1003.95
2022-12-26T01:12:38.564Z,1003.95
2022-12-26T01:13:38.569Z,1004.03
2022-12-26T01:14:38.570Z,1003.97
2022-12-26T01:15:38.546Z,1004.01
2022-12-26T01:16:38.588Z,1003.99
2022-12-26T01:17:38.542Z,1003.98
2022-12-26T01:18:38.542Z,1004.04
2022-12-26T01:19:38.544Z,1003.92
2022-12-26T01:20:38.549Z,1004.02
2022-12-26T01:21:38.539Z,1003.90
2022-12-26T01:22:38.529Z,1003.91
2022-12-26T01:23:38.578Z,1003.90
2022-12-26T01:24:38.529Z,1003.93
2022-12-26T01:26:15.115Z,1003.94
2022-12-26T01:26:38.517Z,1004.00
2022-12-26T01:27:38.520Z,1004.00
2022-12-26T01:28:38.540Z,1004.03
2022-12-26T01:29:38.510Z,1004.05
2022-12-26T01:30:38.524Z,1004.07
2022-12-26T01:31:38.553Z,1004.09
2022-12-26T01:32:38.521Z,1004.17
2022-12-26T01:33:38.511Z,1004.05
2022-12-26T01:34:38.537Z,1004.11
2022-12-26T01:35:38.509Z,1004.14
2022-12-26T01:36:38.496Z,1004.05
2022-12-26T01:37:38.508Z,1003.99
2022-12-26T01:38:38.495Z,1004.00
2022-12-26T01:39:38.521Z,1003.96
2022-12-26T01:40:38.490Z,1003.86
2022-12-26T01:41:38.489Z,1003.84
2022-12-26T01:42:38.507Z,1003.80
2022-12-26T01:43:38.497Z,1003.86
2022-12-26T01:44:38.497Z,1003.93
2022-12-26T01:45:38.566Z,1003.89
2022-12-26T01:46:38.486Z,1003.86
2022-12-26T01:47:38.478Z,1003.87
2022-12-26T01:48:38.478Z,1003.85
2022-12-26T01:49:38.485Z,1003.84
2022-12-26T01:50:38.478Z,1003.85
2022-12-26T01:51:38.501Z,1003.88
2022-12-26T01:52:38.468Z,1003.88
2022-12-26T01:53:38.471Z,1003.87
2022-12-26T01:54:42.578Z,1003.83
2022-12-26T01:55:38.471Z,1003.83
2022-12-26T01:56:38.469Z,1003.83
2022-12-26T01:57:38.486Z,1003.79
2022-12-26T01:58:38.467Z,1003.84
2022-12-26T01:59:38.494Z,1003.82
2022-12-26T02:00:38.549Z,1003.86
2022-12-26T02:01:38.606Z,1003.91
2022-12-26T02:02:38.561Z,1003.92
2022-12-26T02:03:38.460Z,1003.84
2022-12-26T02:04:38.454Z,1003.81
2022-12-26T02:05:38.445Z,1003.78
2022-12-26T02:06:38.459Z,1003.83
2022-12-26T02:07:38.455Z,1003.85
2022-12-26T02:08:38.446Z,1003.79
2022-12-26T02:09:38.440Z,1003.84
2022-12-26T02:10:38.450Z,1003.82
2022-12-26T02:13:10.510Z,1003.87
2022-12-26T02:14:10.558Z,1003.83
2022-12-26T02:15:10.518Z,1003.82
2022-12-26T02:16:10.567Z,1003.81
2022-12-26T02:17:10.484Z,1003.84
2022-12-26T02:18:10.506Z,1003.79
2022-12-26T02:19:10.506Z,1003.81
2022-12-26T02:20:10.499Z,1003.78
2022-12-26T02:21:10.478Z,1003.72
2022-12-26T02:22:10.488Z,1003.75
2022-12-26T02:23:10.507Z,1003.75
2022-12-26T02:24:10.471Z,1003.79
2022-12-26T02:25:10.488Z,1003.71
2022-12-26T02:26:10.493Z,1003.59
2022-12-26T02:27:10.470Z,1003.61
2022-12-26T02:28:10.474Z,1003.71
2022-12-26T02:29:10.499Z,1003.71
2022-12-26T02:30:10.479Z,1003.74
2022-12-26T02:31:10.462Z,1003.76
2022-12-26T02:32:10.487Z,1003.76
2022-12-26T02:33:10.466Z,1003.68
2022-12-26T02:34:10.456Z,1003.70
2022-12-26T02:35:10.473Z,1003.71
2022-12-26T02:36:10.463Z,1003.67
2022-12-26T02:37:10.469Z,1003.68
2022-12-26T02:38:10.470Z,1003.64
2022-12-26T02:39:43.717Z,1003.63
2022-12-26T02:40:10.472Z,1003.58
2022-12-26T02:41:10.464Z,1003.59
2022-12-26T02:42:10.452Z,1003.62
2022-12-26T02:43:10.455Z,1003.59
2022-12-26T02:44:10.456Z,1003.62
2022-12-26T02:45:10.458Z,1003.63
2022-12-26T02:46:10.543Z,1003.58
2022-12-26T02:47:10.440Z,1003.56
2022-12-26T02:48:10.447Z,1003.59
2022-12-26T02:49:10.446Z,1003.62
2022-12-26T02:50:10.470Z,1003.60
2022-12-26T02:51:10.428Z,1003.66
2022-12-26T02:52:10.419Z,1003.59
2022-12-26T02:53:10.430Z,1003.62
2022-12-26T02:54:10.434Z,1003.58
2022-12-26T02:55:10.442Z,1003.75
2022-12-26T02:56:10.416Z,1003.72
2022-12-26T02:57:10.430Z,1003.80
2022-12-26T02:58:10.442Z,1003.84
2022-12-26T02:59:10.423Z,1003.81
2022-12-26T03:00:10.425Z,1003.75
2022-12-26T03:01:10.530Z,1003.81
2022-12-26T03:02:10.609Z,1003.82
2022-12-26T03:03:10.479Z,1003.74
2022-12-26T03:04:10.401Z,1003.81
2022-12-26T03:05:10.409Z,1003.77
2022-12-26T03:06:10.404Z,1003.82
2022-12-26T03:07:10.403Z,1003.74
2022-12-26T03:08:10.428Z,1003.73
2022-12-26T03:09:10.420Z,1003.73
2022-12-26T03:10:10.398Z,1003.71
2022-12-26T03:11:10.401Z,1003.72
2022-12-26T03:12:10.416Z,1003.80
2022-12-26T03:13:10.401Z,1003.88
2022-12-26T03:14:10.421Z,1003.88
2022-12-26T03:15:10.404Z,1003.91
2022-12-26T03:16:10.570Z,1003.86
2022-12-26T03:17:10.472Z,1003.84
2022-12-26T03:18:10.396Z,1003.88
2022-12-26T03:19:10.424Z,1003.93
2022-12-26T03:20:10.396Z,1003.85
2022-12-26T03:21:10.390Z,1003.85
2022-12-26T03:22:10.389Z,1003.81
2022-12-26T03:23:10.386Z,1003.72
2022-12-26T03:24:10.385Z,1003.75
2022-12-26T03:25:10.394Z,1003.74
2022-12-26T03:26:10.390Z,1003.78
2022-12-26T03:27:10.376Z,1003.74
2022-12-26T03:28:10.371Z,1003.82
2022-12-26T03:29:14.384Z,1003.88
2022-12-26T03:30:10.372Z,1003.83
2022-12-26T03:31:10.419Z,1003.80
2022-12-26T03:32:10.374Z,1003.90
2022-12-26T03:33:10.365Z,1003.82
2022-12-26T03:34:10.365Z,1003.89
2022-12-26T03:35:10.362Z,1003.83
2022-12-26T03:36:10.368Z,1003.78
2022-12-26T03:37:10.351Z,1003.75
2022-12-26T03:38:10.378Z,1003.85
2022-12-26T03:39:10.373Z,1003.85
2022-12-26T03:40:10.372Z,1003.80
2022-12-26T03:41:10.381Z,1003.82
2022-12-26T03:42:10.380Z,1003.80
2022-12-26T03:43:10.380Z,1003.79
2022-12-26T03:44:10.353Z,1003.74
2022-12-26T03:45:10.339Z,1003.76
2022-12-26T03:46:10.398Z,1003.80
2022-12-26T03:47:10.360Z,1003.80
2022-12-26T03:48:10.345Z,1003.75
2022-12-26T03:49:10.341Z,1003.75
2022-12-26T03:50:10.350Z,1003.76
2022-12-26T03:51:10.330Z,1003.79
2022-12-26T03:52:10.342Z,1003.76
2022-12-26T03:53:10.347Z,1003.82
2022-12-26T03:54:10.333Z,1003.77
2022-12-26T03:55:10.360Z,1003.80
2022-12-26T03:56:10.331Z,1003.83
2022-12-26T03:57:10.333Z,1003.87
2022-12-26T03:58:10.331Z,1003.94
2022-12-26T03:59:10.417Z,1003.87
2022-12-26T04:00:10.352Z,1003.94
2022-12-26T04:01:10.386Z,1003.96
2022-12-26T04:02:10.442Z,1003.85
2022-12-26T04:03:10.406Z,1003.86
2022-12-26T04:04:10.367Z,1003.80
2022-12-26T04:05:10.308Z,1003.82
2022-12-26T04:06:10.306Z,1003.89
2022-12-26T04:07:10.304Z,1003.88
2022-12-26T04:08:16.468Z,1003.94
2022-12-26T04:09:10.303Z,1004.04
2022-12-26T04:10:10.334Z,1004.06
2022-12-26T04:11:10.296Z,1004.13
2022-12-26T04:12:10.307Z,1004.20
2022-12-26T04:13:10.293Z,1004.23
2022-12-26T04:14:10.291Z,1004.26
2022-12-26T04:15:10.315Z,1004.23
2022-12-26T04:16:10.356Z,1004.15
2022-12-26T04:17:10.297Z,1004.12
2022-12-26T04:18:10.292Z,1004.09
2022-12-26T04:19:10.280Z,1004.12
2022-12-26T04:20:10.300Z,1004.12
2022-12-26T04:21:10.283Z,1004.04
2022-12-26T04:22:10.299Z,1004.01
2022-12-26T04:23:10.303Z,1003.99
2022-12-26T04:24:10.282Z,1003.96
2022-12-26T04:25:10.271Z,1003.99
2022-12-26T04:26:10.285Z,1004.02
2022-12-26T04:27:10.277Z,1004.02
2022-12-26T04:28:10.263Z,1004.02
2022-12-26T04:29:10.286Z,1004.05
2022-12-26T04:30:10.278Z,1004.15
2022-12-26T04:31:10.345Z,1004.10
2022-12-26T04:32:10.271Z,1004.04
2022-12-26T04:33:10.287Z,1004.06
2022-12-26T04:34:10.256Z,1004.13
2022-12-26T04:35:10.268Z,1004.20
2022-12-26T04:36:10.259Z,1004.18
2022-12-26T04:37:10.261Z,1004.16
2022-12-26T04:38:10.264Z,1004.12
2022-12-26T04:39:10.287Z,1004.12
2022-12-26T04:40:19.761Z,1004.08
2022-12-26T04:41:10.269Z,1004.08
2022-12-26T04:42:10.254Z,1004.12
2022-12-26T04:43:49.689Z,1004.17
2022-12-26T04:44:10.255Z,1004.18
2022-12-26T04:45:10.261Z,1004.17
2022-12-26T04:46:10.268Z,1004.11
2022-12-26T04:47:10.284Z,1004.10
2022-12-26T04:48:10.243Z,1004.10
2022-12-26T04:49:10.243Z,1004.16
2022-12-26T04:50:10.258Z,1004.16
2022-12-26T04:51:10.244Z,1004.12
2022-12-26T04:52:10.240Z,1004.15
2022-12-26T04:53:10.241Z,1004.18
2022-12-26T04:54:10.221Z,1004.09
2022-12-26T04:55:10.244Z,1004.05
2022-12-26T04:56:10.242Z,1004.11
2022-12-26T04:57:10.231Z,1004.11
2022-12-26T04:58:10.238Z,1004.17
2022-12-26T04:59:10.249Z,1004.20
2022-12-26T05:00:10.256Z,1004.17
2022-12-26T05:01:10.342Z,1004.11
2022-12-26T05:02:10.312Z,1004.19
2022-12-26T05:03:14.560Z,1004.17
2022-12-26T05:04:10.205Z,1004.23
2022-12-26T05:05:10.218Z,1004.24
2022-12-26T05:06:10.242Z,1004.22
2022-12-26T05:07:10.233Z,1004.20
2022-12-26T05:08:10.223Z,1004.20
2022-12-26T05:09:10.229Z,1004.27
2022-12-26T05:10:10.207Z,1004.20
2022-12-26T05:11:10.243Z,1004.21
2022-12-26T05:12:10.207Z,1004.26
2022-12-26T05:13:10.191Z,1004.26
2022-12-26T05:14:10.193Z,1004.26
2022-12-26T05:15:10.203Z,1004.32
2022-12-26T05:16:10.267Z,1004.39
2022-12-26T05:17:10.201Z,1004.39
2022-12-26T05:18:10.202Z,1004.47
2022-12-26T05:19:10.210Z,1004.42
2022-12-26T05:20:10.214Z,1004.46
2022-12-26T05:21:10.221Z,1004.49
2022-12-26T05:22:10.193Z,1004.47
2022-12-26T05:23:10.213Z,1004.44
2022-12-26T05:24:10.185Z,1004.42
2022-12-26T05:25:10.177Z,1004.46
2022-12-26T05:26:10.191Z,1004.46
2022-12-26T05:27:10.184Z,1004.48
2022-12-26T05:28:10.180Z,1004.51
2022-12-26T05:29:10.193Z,1004.49
2022-12-26T05:30:10.178Z,1004.47
2022-12-26T05:31:10.204Z,1004.43
2022-12-26T05:32:10.183Z,1004.40
2022-12-26T05:33:10.175Z,1004.37
2022-12-26T05:34:10.177Z,1004.35
2022-12-26T05:35:10.180Z,1004.35
2022-12-26T05:36:10.174Z,1004.37
2022-12-26T05:37:10.175Z,1004.41
2022-12-26T05:38:10.182Z,1004.51
2022-12-26T05:39:10.193Z,1004.47
2022-12-26T05:40:10.165Z,1004.43
2022-12-26T05:41:10.149Z,1004.46
2022-12-26T05:42:10.159Z,1004.50
2022-12-26T05:43:10.170Z,1004.46
2022-12-26T05:44:10.175Z,1004.49
2022-12-26T05:45:10.162Z,1004.49
2022-12-26T05:46:10.248Z,1004.53
2022-12-26T05:47:10.159Z,1004.54
2022-12-26T05:48:10.149Z,1004.53
2022-12-26T05:49:10.147Z,1004.49
2022-12-26T05:50:10.152Z,1004.50
2022-12-26T05:51:10.158Z,1004.52
2022-12-26T05:52:10.154Z,1004.54
2022-12-26T05:53:10.160Z,1004.50
2022-12-26T05:54:10.150Z,1004.44
2022-12-26T05:55:10.171Z,1004.46
2022-12-26T05:56:10.145Z,1004.46
2022-12-26T05:57:10.127Z,1004.51
2022-12-26T05:58:10.128Z,1004.51
2022-12-26T05:59:10.126Z,1004.53
2022-12-26T06:00:10.150Z,1004.49
2022-12-26T06:01:10.297Z,1004.53
2022-12-26T06:02:10.224Z,1004.51
2022-12-26T06:03:10.205Z,1004.53
2022-12-26T06:04:10.134Z,1004.50
2022-12-26T06:05:10.120Z,1004.51
2022-12-26T06:06:10.117Z,1004.54
2022-12-26T06:07:10.161Z,1004.56
2022-12-26T06:08:10.110Z,1004.60
2022-12-26T06:09:10.109Z,1004.60
2022-12-26T06:10:10.113Z,1004.59
2022-12-26T06:11:10.166Z,1004.49
2022-12-26T06:12:10.136Z,1004.51
2022-12-26T06:13:10.132Z,1004.49
2022-12-26T06:14:10.133Z,1004.53
2022-12-26T06:15:10.117Z,1004.51
2022-12-26T06:16:10.148Z,1004.52
2022-12-26T06:17:10.128Z,1004.50
2022-12-26T06:18:10.130Z,1004.54
2022-12-26T06:19:10.110Z,1004.47
2022-12-26T06:20:10.111Z,1004.49
2022-12-26T06:21:10.151Z,1004.49
2022-12-26T06:22:10.123Z,1004.49
2022-12-26T06:23:10.115Z,1004.50
2022-12-26T06:24:10.136Z,1004.47
2022-12-26T06:25:10.093Z,1004.47
2022-12-26T06:26:10.399Z,1004.48
2022-12-26T06:27:10.121Z,1004.45
2022-12-26T06:28:10.154Z,1004.52
2022-12-26T06:29:10.123Z,1004.52
2022-12-26T06:30:10.118Z,1004.47
2022-12-26T06:31:10.174Z,1004.46
2022-12-26T06:32:10.080Z,1004.49
2022-12-26T06:33:10.128Z,1004.51
2022-12-26T06:34:12.781Z,1004.61
2022-12-26T06:35:17.655Z,1004.68
2022-12-26T06:36:10.082Z,1004.71
2022-12-26T06:37:10.733Z,1004.75
2022-12-26T06:38:10.078Z,1004.78
2022-12-26T06:39:10.066Z,1004.83
2022-12-26T06:40:10.065Z,1004.88
2022-12-26T06:41:10.132Z,1004.91
2022-12-26T06:42:10.058Z,1004.91
2022-12-26T06:43:10.078Z,1004.85
2022-12-26T06:44:14.525Z,1004.88
2022-12-26T06:45:10.065Z,1004.84
2022-12-26T06:46:10.063Z,1004.90
2022-12-26T06:47:10.173Z,1004.89
2022-12-26T06:48:10.050Z,1004.95
2022-12-26T06:49:10.066Z,1004.96
2022-12-26T06:50:10.075Z,1005.00
2022-12-26T06:51:10.110Z,1004.98
2022-12-26T06:52:10.084Z,1005.01
2022-12-26T06:53:10.051Z,1005.10
2022-12-26T06:54:10.064Z,1005.12
2022-12-26T06:55:10.079Z,1005.09
2022-12-26T06:56:10.066Z,1005.07
2022-12-26T06:57:10.053Z,1005.14
2022-12-26T06:58:10.041Z,1005.19
2022-12-26T06:59:10.064Z,1005.19
2022-12-26T07:00:10.069Z,1005.22
2022-12-26T07:01:10.299Z,1005.21
2022-12-26T07:02:10.220Z,1005.21
2022-12-26T07:03:10.117Z,1005.26
2022-12-26T07:04:10.766Z,1005.23
2022-12-26T07:05:10.061Z,1005.16
2022-12-26T07:06:10.022Z,1005.07
2022-12-26T07:07:10.065Z,1005.11
2022-12-26T07:09:43.085Z,1005.16
2022-12-26T07:10:43.101Z,1005.18
2022-12-26T07:11:43.077Z,1005.23
2022-12-26T07:12:43.086Z,1005.22
2022-12-26T07:13:43.904Z,1005.23
2022-12-26T07:14:59.711Z,1005.26
2022-12-26T07:15:43.167Z,1005.24
2022-12-26T07:18:17.292Z,1005.25
2022-12-26T07:19:16.320Z,1005.18
2022-12-26T07:20:16.180Z,1005.28
2022-12-26T07:21:17.187Z,1005.28
2022-12-26T07:22:16.138Z,1005.27
2022-12-26T07:23:16.136Z,1005.17
2022-12-26T07:24:16.123Z,1005.18
2022-12-26T07:25:16.065Z,1005.20
2022-12-26T07:26:16.072Z,1005.21
2022-12-26T07:27:16.081Z,1005.17
2022-12-26T07:28:16.066Z,1005.22
2022-12-26T07:29:16.079Z,1005.21
2022-12-26T07:30:16.275Z,1005.18
2022-12-26T07:31:16.127Z,1005.24
2022-12-26T07:32:16.224Z,1005.25
2022-12-26T07:33:17.233Z,1005.24
2022-12-26T07:34:16.079Z,1005.18
2022-12-26T07:35:16.727Z,1005.20
2022-12-26T07:36:17.742Z,1005.21
2022-12-26T07:37:16.064Z,1005.22
2022-12-26T07:38:16.042Z,1005.22
2022-12-26T07:39:16.061Z,1005.18
2022-12-26T07:40:16.040Z,1005.17
2022-12-26T07:41:16.037Z,1005.16
2022-12-26T07:42:16.055Z,1005.18
2022-12-26T07:43:16.193Z,1005.16
2022-12-26T07:44:16.125Z,1005.13
2022-12-26T07:45:16.038Z,1005.17
2022-12-26T07:46:17.062Z,1005.18
2022-12-26T07:47:16.045Z,1005.21
2022-12-26T07:48:16.032Z,1005.28
2022-12-26T07:49:16.098Z,1005.30
2022-12-26T07:50:16.038Z,1005.34
2022-12-26T07:51:16.029Z,1005.28
2022-12-26T07:52:16.036Z,1005.32
2022-12-26T07:53:16.065Z,1005.31
2022-12-26T07:54:16.072Z,1005.38
2022-12-26T07:55:16.054Z,1005.43
2022-12-26T07:56:16.034Z,1005.43
2022-12-26T07:57:47.022Z,1005.48
2022-12-26T07:58:16.016Z,1005.45
2022-12-26T07:59:16.205Z,1005.43
2022-12-26T08:00:16.029Z,1005.46
2022-12-26T08:01:16.273Z,1005.45
2022-12-26T08:02:16.211Z,1005.50
2022-12-26T08:03:16.129Z,1005.53
2022-12-26T08:04:16.724Z,1005.58
2022-12-26T08:05:19.734Z,1005.54
2022-12-26T08:06:16.130Z,1005.51
2022-12-26T08:07:16.725Z,1005.54
2022-12-26T08:08:16.777Z,1005.50
2022-12-26T08:09:16.146Z,1005.50
2022-12-26T08:10:16.003Z,1005.47
2022-12-26T08:11:16.001Z,1005.46
2022-12-26T08:12:16.039Z,1005.47
2022-12-26T08:13:16.024Z,1005.50
2022-12-26T08:14:16.009Z,1005.42
2022-12-26T08:15:16.001Z,1005.42
2022-12-26T08:16:16.152Z,1005.43
2022-12-26T08:17:16.161Z,1005.45
2022-12-26T08:18:15.999Z,1005.47
2022-12-26T08:19:15.998Z,1005.45
2022-12-26T08:20:15.984Z,1005.47
2022-12-26T08:21:15.996Z,1005.43
2022-12-26T08:22:16.001Z,1005.45
2022-12-26T08:23:15.990Z,1005.52
2022-12-26T08:24:16.021Z,1005.45
2022-12-26T08:25:18.373Z,1005.46
2022-12-26T08:26:15.971Z,1005.46
2022-12-26T08:27:15.986Z,1005.39
2022-12-26T08:28:15.989Z,1005.37
2022-12-26T08:29:15.979Z,1005.41
2022-12-26T08:30:15.967Z,1005.40
2022-12-26T08:31:16.000Z,1005.41
2022-12-26T08:32:15.983Z,1005.42
2022-12-26T08:33:15.980Z,1005.43
2022-12-26T08:34:15.979Z,1005.41
2022-12-26T08:35:15.974Z,1005.45
2022-12-26T08:36:15.962Z,1005.46
2022-12-26T08:37:15.983Z,1005.42
2022-12-26T08:38:16.207Z,1005.44
2022-12-26T08:39:15.993Z,1005.40
2022-12-26T08:40:26.757Z,1005.42
2022-12-26T08:41:16.764Z,1005.50
2022-12-26T08:42:16.040Z,1005.47
2022-12-26T08:45:14.258Z,1005.44
2022-12-26T08:46:14.410Z,1005.48
2022-12-26T08:47:14.257Z,1005.44
2022-12-26T08:48:14.286Z,1005.46
2022-12-26T08:49:14.251Z,1005.46
2022-12-26T08:50:14.239Z,1005.43
2022-12-26T08:51:14.319Z,1005.44
2022-12-26T08:52:14.222Z,1005.49
2022-12-26T08:53:14.258Z,1005.44
2022-12-26T08:54:14.234Z,1005.51
2022-12-26T08:55:14.240Z,1005.56
2022-12-26T08:56:14.237Z,1005.50
2022-12-26T08:57:14.246Z,1005.53
2022-12-26T08:58:14.246Z,1005.49
2022-12-26T08:59:14.241Z,1005.51
2022-12-26T09:00:14.259Z,1005.52
2022-12-26T09:01:14.310Z,1005.52
2022-12-26T09:02:14.349Z,1005.53
2022-12-26T09:03:14.304Z,1005.59
2022-12-26T09:04:14.242Z,1005.66
2022-12-26T09:05:14.218Z,1005.64
2022-12-26T09:06:14.244Z,1005.64
2022-12-26T09:07:14.216Z,1005.69
2022-12-26T09:08:14.246Z,1005.71
2022-12-26T09:09:14.221Z,1005.75
2022-12-26T09:10:14.226Z,1005.78
2022-12-26T09:11:14.225Z,1005.77
2022-12-26T09:12:14.207Z,1005.73
2022-12-26T09:13:14.218Z,1005.76
2022-12-26T09:14:14.245Z,1005.82
2022-12-26T09:15:14.216Z,1005.84
2022-12-26T09:16:14.215Z,1005.86
2022-12-26T09:17:14.243Z,1005.90
2022-12-26T09:18:14.213Z,1005.85
2022-12-26T09:19:14.223Z,1005.87
2022-12-26T09:20:14.225Z,1005.89
2022-12-26T09:21:14.203Z,1005.95
2022-12-26T09:22:14.245Z,1005.96
2022-12-26T09:23:14.192Z,1006.00
2022-12-26T09:24:14.241Z,1005.98
2022-12-26T09:25:14.187Z,1006.00
2022-12-26T09:26:14.186Z,1005.97
2022-12-26T09:27:14.182Z,1005.96
2022-12-26T09:28:14.192Z,1005.95
2022-12-26T09:29:14.202Z,1005.95
2022-12-26T09:30:14.206Z,1005.90
2022-12-26T09:31:14.239Z,1005.92
2022-12-26T09:32:14.202Z,1005.94
2022-12-26T09:33:14.191Z,1005.98
2022-12-26T09:34:14.197Z,1006.06
2022-12-26T09:35:14.185Z,1006.09
2022-12-26T09:36:15.126Z,1006.06
2022-12-26T09:37:14.186Z,1006.05
2022-12-26T09:38:14.192Z,1006.06
2022-12-26T09:39:14.203Z,1006.05
2022-12-26T09:40:14.169Z,1006.05
2022-12-26T09:41:14.179Z,1006.07
2022-12-26T09:42:14.170Z,1006.01
2022-12-26T09:43:14.169Z,1006.02
2022-12-26T09:44:14.167Z,1006.01
2022-12-26T09:45:14.191Z,1005.99
2022-12-26T09:46:14.231Z,1005.93
2022-12-26T09:47:14.170Z,1005.99
2022-12-26T09:48:14.155Z,1005.93
2022-12-26T09:49:14.168Z,1005.92
2022-12-26T09:50:14.192Z,1005.96
2022-12-26T09:51:14.168Z,1005.99
2022-12-26T09:52:14.162Z,1005.96
2022-12-26T09:53:14.145Z,1005.96
2022-12-26T09:54:14.146Z,1005.93
2022-12-26T09:55:14.148Z,1005.90
2022-12-26T09:56:53.151Z,1005.90
2022-12-26T09:57:15.202Z,1005.95
2022-12-26T09:58:14.156Z,1005.96
2022-12-26T09:59:14.154Z,1005.93
2022-12-26T10:00:14.142Z,1005.92
2022-12-26T10:01:14.309Z,1005.95
2022-12-26T10:02:14.291Z,1006.00
2022-12-26T10:03:14.154Z,1006.00
2022-12-26T10:04:14.246Z,1006.04
2022-12-26T10:05:14.142Z,1006.02
2022-12-26T10:06:14.143Z,1006.03
2022-12-26T10:07:14.176Z,1006.08
2022-12-26T10:08:14.145Z,1006.13
2022-12-26T10:09:14.139Z,1006.11
2022-12-26T10:10:14.158Z,1006.16
2022-12-26T10:11:14.125Z,1006.17
2022-12-26T10:12:14.133Z,1006.22
2022-12-26T10:13:14.129Z,1006.17
2022-12-26T10:14:19.799Z,1006.23
2022-12-26T10:15:14.139Z,1006.19
2022-12-26T10:16:14.259Z,1006.17
2022-12-26T10:17:14.127Z,1006.22
2022-12-26T10:18:14.165Z,1006.30
2022-12-26T10:19:14.115Z,1006.28
2022-12-26T10:20:14.115Z,1006.30
2022-12-26T10:21:14.116Z,1006.26
2022-12-26T10:22:14.121Z,1006.29
2022-12-26T10:23:14.117Z,1006.23
2022-12-26T10:24:14.150Z,1006.24
2022-12-26T10:25:14.120Z,1006.26
2022-12-26T10:26:14.139Z,1006.23
2022-12-26T10:27:14.122Z,1006.27
2022-12-26T10:28:14.122Z,1006.23
2022-12-26T10:29:14.264Z,1006.21
2022-12-26T10:30:14.122Z,1006.23
2022-12-26T10:31:14.169Z,1006.21
2022-12-26T10:32:14.111Z,1006.17
2022-12-26T10:33:14.101Z,1006.11
2022-12-26T10:34:14.100Z,1006.12
2022-12-26T10:35:14.128Z,1006.15
2022-12-26T10:36:14.113Z,1006.12
2022-12-26T10:37:14.116Z,1006.20
2022-12-26T10:38:14.098Z,1006.16
2022-12-26T10:39:14.120Z,1006.07
2022-12-26T10:41:53.407Z,1006.15
2022-12-26T10:42:53.386Z,1006.13
2022-12-26T10:43:53.378Z,1006.12
2022-12-26T10:44:53.384Z,1006.05
2022-12-26T10:45:53.395Z,1006.02
2022-12-26T10:46:53.393Z,1005.94
2022-12-26T10:47:53.400Z,1006.01
2022-12-26T10:48:53.386Z,1006.00
2022-12-26T10:49:53.386Z,1006.00
2022-12-26T10:50:53.434Z,1006.03
2022-12-26T10:51:53.395Z,1006.04
2022-12-26T10:52:53.377Z,1006.11
2022-12-26T10:53:53.380Z,1006.20
2022-12-26T10:55:28.650Z,1006.16
2022-12-26T10:55:53.365Z,1006.13
2022-12-26T10:56:53.364Z,1006.11
2022-12-26T10:57:53.381Z,1006.05
2022-12-26T10:58:53.364Z,1006.00
2022-12-26T10:59:53.397Z,1006.02
2022-12-26T11:00:53.386Z,1006.02
2022-12-26T11:01:53.498Z,1006.02
2022-12-26T11:02:53.703Z,1006.09
2022-12-26T11:03:53.414Z,1006.10
2022-12-26T11:05:13.570Z,1006.06
2022-12-26T11:06:09.636Z,1006.06
2022-12-26T11:06:53.367Z,1006.13
2022-12-26T11:07:53.389Z,1006.09
2022-12-26T11:08:53.351Z,1006.14
2022-12-26T11:09:53.352Z,1006.17
2022-12-26T11:10:53.376Z,1006.14
2022-12-26T11:11:53.359Z,1006.14
2022-12-26T11:12:53.361Z,1006.09
2022-12-26T11:13:57.736Z,1006.14
2022-12-26T11:14:53.351Z,1006.15
2022-12-26T11:15:53.393Z,1006.23
2022-12-26T11:16:53.352Z,1006.23
2022-12-26T11:17:53.358Z,1006.23
2022-12-26T11:18:53.359Z,1006.12
2022-12-26T11:19:53.354Z,1006.20
2022-12-26T11:20:53.375Z,1006.20
2022-12-26T11:21:53.355Z,1006.23
2022-12-26T11:22:53.346Z,1006.19
2022-12-26T11:23:53.349Z,1006.15
2022-12-26T11:24:53.346Z,1006.15
2022-12-26T11:25:53.377Z,1006.16
2022-12-26T11:26:53.346Z,1006.11
2022-12-26T11:27:53.336Z,1006.13
2022-12-26T11:28:53.342Z,1006.07
2022-12-26T11:29:53.603Z,1006.03
2022-12-26T11:30:53.356Z,1005.99
2022-12-26T11:31:53.357Z,1005.97
2022-12-26T11:32:53.360Z,1005.94
2022-12-26T11:33:53.329Z,1005.87
2022-12-26T11:34:53.329Z,1005.91
2022-12-26T11:35:53.335Z,1005.90
2022-12-26T11:36:53.344Z,1005.85
2022-12-26T11:37:53.340Z,1005.88
2022-12-26T11:38:53.340Z,1005.92
2022-12-26T11:39:53.320Z,1005.90
2022-12-26T11:40:53.336Z,1006.01
2022-12-26T11:41:53.366Z,1005.96
2022-12-26T11:42:53.324Z,1006.02
2022-12-26T11:43:53.348Z,1006.06
2022-12-26T11:44:53.324Z,1006.06
2022-12-26T11:45:53.331Z,1006.05
2022-12-26T11:46:53.364Z,1006.05
2022-12-26T11:47:53.322Z,1006.08
2022-12-26T11:48:53.324Z,1006.09
2022-12-26T11:49:53.313Z,1006.09
2022-12-26T11:50:53.316Z,1006.07
2022-12-26T11:51:58.743Z,1006.09
2022-12-26T11:52:53.335Z,1006.12
2022-12-26T11:53:53.317Z,1006.10
2022-12-26T11:54:53.312Z,1006.13
2022-12-26T11:55:53.311Z,1006.13
2022-12-26T11:56:53.300Z,1006.16
2022-12-26T11:57:56.931Z,1006.10
2022-12-26T11:58:53.342Z,1006.12
2022-12-26T11:59:53.298Z,1006.13
2022-12-26T12:00:53.304Z,1006.17
2022-12-26T12:01:53.457Z,1006.21
2022-12-26T12:02:53.363Z,1006.22
2022-12-26T12:03:53.375Z,1006.22
2022-12-26T12:04:53.303Z,1006.20
2022-12-26T12:05:53.304Z,1006.22
2022-12-26T12:06:53.290Z,1006.16
2022-12-26T12:07:53.310Z,1006.21
2022-12-26T12:08:53.304Z,1006.17
2022-12-26T12:09:53.295Z,1006.16
2022-12-26T12:10:53.313Z,1006.13
2022-12-26T12:11:53.291Z,1006.16
2022-12-26T12:12:53.303Z,1006.14
2022-12-26T12:13:53.296Z,1006.13